sensor_id;sensor_type;location;lat;lon;timestamp;pressure;altitude;pressure_sealevel;temperature;humidity
65800;BME280;52544;48.116;11.660;2022-09-28T00:03:38;94238.66;;;8.47;100.00
65800;BME280;52544;48.116;11.660;2022-09-28T00:06:08;94239.66;;;8.46;100.00
65800;BME280;52544;48.116;11.660;2022-09-28T00:08:35;94240.69;;;8.54;100.00
65800;BME280;52544;48.116;11.660;2022-09-28T00:11:01;94228.84;;;8.58;100.00
65800;BME280;52544;48.116;11.660;2022-09-28T00:13:27;94232.19;;;8.60;100.00
65800;BME280;52544;48.116;11.660;2022-09-28T00:15:58;94229.47;;;8.51;100.00
65800;BME280;52544;48.116;11.660;2022-09-28T00:18:24;94219.47;;;8.55;100.00
65800;BME280;52544;48.116;11.660;2022-09-28T00:20:59;94221.81;;;8.58;100.00
65800;BME280;52544;48.116;11.660;2022-09-28T00:23:24;94215.38;;;8.61;100.00
65800;BME280;52544;48.116;11.660;2022-09-28T00:25:50;94208.28;;;8.61;100.00
65800;BME280;52544;48.116;11.660;2022-09-28T00:28:15;94202.34;;;8.59;100.00
65800;BME280;52544;48.116;11.660;2022-09-28T00:30:40;94199.84;;;8.58;100.00
65800;BME280;52544;48.116;11.660;2022-09-28T00:33:06;94188.19;;;8.60;100.00
65800;BME280;52544;48.116;11.660;2022-09-28T00:35:31;94182.84;;;8.52;100.00
65800;BME280;52544;48.116;11.660;2022-09-28T00:37:57;94184.88;;;8.58;100.00
65800;BME280;52544;48.116;11.660;2022-09-28T00:40:22;94183.22;;;8.57;100.00
65800;BME280;52544;48.116;11.660;2022-09-28T00:42:47;94178.31;;;8.62;100.00
65800;BME280;52544;48.116;11.660;2022-09-28T00:45:13;94166.09;;;8.61;100.00
65800;BME280;52544;48.116;11.660;2022-09-28T00:47:48;94168.09;;;8.59;100.00
65800;BME280;52544;48.116;11.660;2022-09-28T00:50:28;94167.25;;;8.59;100.00
65800;BME280;52544;48.116;11.660;2022-09-28T00:53:10;94162.81;;;8.59;100.00
65800;BME280;52544;48.116;11.660;2022-09-28T00:55:41;94161.97;;;8.59;100.00
65800;BME280;52544;48.116;11.660;2022-09-28T00:58:09;94153.91;;;8.60;100.00
65800;BME280;52544;48.116;11.660;2022-09-28T01:00:37;94154.91;;;8.59;100.00
65800;BME280;52544;48.116;11.660;2022-09-28T01:03:06;94160.63;;;8.55;100.00
65800;BME280;52544;48.116;11.660;2022-09-28T01:05:33;94157.31;;;8.52;100.00
65800;BME280;52544;48.116;11.660;2022-09-28T01:08:00;94154.22;;;8.57;100.00
65800;BME280;52544;48.116;11.660;2022-09-28T01:10:28;94144.47;;;8.58;100.00
65800;BME280;52544;48.116;11.660;2022-09-28T01:12:54;94132.16;;;8.58;100.00
65800;BME280;52544;48.116;11.660;2022-09-28T01:15:20;94125.19;;;8.57;100.00
65800;BME280;52544;48.116;11.660;2022-09-28T01:18:07;94130.47;;;8.57;100.00
65800;BME280;52544;48.116;11.660;2022-09-28T01:28:54;94103.97;;;8.59;100.00
65800;BME280;52544;48.116;11.660;2022-09-28T01:31:30;94108.09;;;8.61;100.00
65800;BME280;52544;48.116;11.660;2022-09-28T01:34:09;94104.78;;;8.59;100.00
65800;BME280;52544;48.116;11.660;2022-09-28T01:36:56;94100.34;;;8.60;100.00
65800;BME280;52544;48.116;11.660;2022-09-28T01:39:29;94089.28;;;8.56;100.00
65800;BME280;52544;48.116;11.660;2022-09-28T01:41:57;94091.63;;;8.59;100.00
65800;BME280;52544;48.116;11.660;2022-09-28T01:44:26;94081.72;;;8.61;100.00
65800;BME280;52544;48.116;11.660;2022-09-28T01:46:56;94076.44;;;8.61;100.00
65800;BME280;52544;48.116;11.660;2022-09-28T01:49:33;94068.53;;;8.61;100.00
65800;BME280;52544;48.116;11.660;2022-09-28T01:52:04;94068.53;;;8.61;100.00
65800;BME280;52544;48.116;11.660;2022-09-28T01:54:50;94050.25;;;8.60;100.00
65800;BME280;52544;48.116;11.660;2022-09-28T01:57:41;94045.78;;;8.60;100.00
65800;BME280;52544;48.116;11.660;2022-09-28T02:00:12;94048.28;;;8.62;100.00
65800;BME280;52544;48.116;11.660;2022-09-28T02:02:43;94051.53;;;8.56;100.00
65800;BME280;52544;48.116;11.660;2022-09-28T02:05:27;94034.59;;;8.58;100.00
65800;BME280;52544;48.116;11.660;2022-09-28T02:10:43;94017.09;;;8.57;100.00
65800;BME280;52544;48.116;11.660;2022-09-28T02:13:18;94008.06;;;8.60;100.00
65800;BME280;52544;48.116;11.660;2022-09-28T02:15:53;94002.63;;;8.61;100.00
65800;BME280;52544;48.116;11.660;2022-09-28T02:18:23;93999.38;;;8.67;100.00
65800;BME280;52544;48.116;11.660;2022-09-28T02:21:06;93997.03;;;8.64;100.00
65800;BME280;52544;48.116;11.660;2022-09-28T02:23:34;93989.94;;;8.65;100.00
65800;BME280;52544;48.116;11.660;2022-09-28T02:26:05;93988.97;;;8.66;100.00
65800;BME280;52544;48.116;11.660;2022-09-28T02:28:33;93980.09;;;8.67;100.00
65800;BME280;52544;48.116;11.660;2022-09-28T02:30:59;93986.84;;;8.69;100.00
65800;BME280;52544;48.116;11.660;2022-09-28T02:33:29;93971.00;;;8.69;100.00
65800;BME280;52544;48.116;11.660;2022-09-28T02:35:59;93972.66;;;8.70;99.94
65800;BME280;52544;48.116;11.660;2022-09-28T02:38:25;93971.31;;;8.66;100.00
65800;BME280;52544;48.116;11.660;2022-09-28T02:41:10;93966.72;;;8.68;100.00
65800;BME280;52544;48.116;11.660;2022-09-28T02:44:25;93959.97;;;8.66;100.00
65800;BME280;52544;48.116;11.660;2022-09-28T02:47:33;93954.84;;;8.64;100.00
65800;BME280;52544;48.116;11.660;2022-09-28T02:50:16;93955.63;;;8.57;100.00
65800;BME280;52544;48.116;11.660;2022-09-28T02:58:34;93939.78;;;8.48;99.97
65800;BME280;52544;48.116;11.660;2022-09-28T03:01:28;93936.31;;;8.48;99.37
65800;BME280;52544;48.116;11.660;2022-09-28T03:04:15;93928.72;;;8.45;98.79
65800;BME280;52544;48.116;11.660;2022-09-28T03:06:46;93920.69;;;8.46;99.00
65800;BME280;52544;48.116;11.660;2022-09-28T03:09:19;93916.22;;;8.47;98.29
65800;BME280;52544;48.116;11.660;2022-09-28T03:12:08;93913.59;;;8.47;98.24
65800;BME280;52544;48.116;11.660;2022-09-28T03:14:35;93915.06;;;8.49;98.72
65800;BME280;52544;48.116;11.660;2022-09-28T03:17:01;93909.78;;;8.49;97.13
65800;BME280;52544;48.116;11.660;2022-09-28T03:19:31;93910.66;;;8.50;95.90
65800;BME280;52544;48.116;11.660;2022-09-28T03:21:57;93906.81;;;8.44;96.71
65800;BME280;52544;48.116;11.660;2022-09-28T03:24:23;93900.72;;;8.44;97.32
65800;BME280;52544;48.116;11.660;2022-09-28T03:26:49;93909.28;;;8.38;98.78
65800;BME280;52544;48.116;11.660;2022-09-28T03:29:14;93908.56;;;8.36;100.00
65800;BME280;52544;48.116;11.660;2022-09-28T03:31:40;93913.81;;;8.36;99.74
65800;BME280;52544;48.116;11.660;2022-09-28T03:34:05;93906.09;;;8.34;99.12
65800;BME280;52544;48.116;11.660;2022-09-28T03:36:31;93893.72;;;8.35;98.93
65800;BME280;52544;48.116;11.660;2022-09-28T03:38:56;93902.94;;;8.31;99.29
65800;BME280;52544;48.116;11.660;2022-09-28T03:41:23;93903.25;;;8.27;98.55
65800;BME280;52544;48.116;11.660;2022-09-28T03:43:49;93897.31;;;8.25;98.48
65800;BME280;52544;48.116;11.660;2022-09-28T03:46:15;93899.59;;;8.20;99.79
65800;BME280;52544;48.116;11.660;2022-09-28T03:48:40;93891.03;;;8.18;100.00
65800;BME280;52544;48.116;11.660;2022-09-28T03:51:06;93878.84;;;8.17;100.00
65800;BME280;52544;48.116;11.660;2022-09-28T03:53:34;93887.72;;;8.16;100.00
65800;BME280;52544;48.116;11.660;2022-09-28T03:56:05;93889.69;;;8.14;99.88
65800;BME280;52544;48.116;11.660;2022-09-28T03:58:31;93884.41;;;8.14;98.90
65800;BME280;52544;48.116;11.660;2022-09-28T04:01:08;93888.03;;;8.13;98.68
65800;BME280;52544;48.116;11.660;2022-09-28T04:03:33;93879.16;;;8.14;98.86
65800;BME280;52544;48.116;11.660;2022-09-28T04:05:59;93880.78;;;8.15;98.42
65800;BME280;52544;48.116;11.660;2022-09-28T04:08:25;93875.03;;;8.12;98.32
65800;BME280;52544;48.116;11.660;2022-09-28T04:10:50;93866.44;;;8.10;98.81
65800;BME280;52544;48.116;11.660;2022-09-28T04:13:16;93869.75;;;8.12;98.57
65800;BME280;52544;48.116;11.660;2022-09-28T04:15:42;93857.88;;;8.08;99.29
65800;BME280;52544;48.116;11.660;2022-09-28T04:18:11;93853.09;;;8.11;99.58
65800;BME280;52544;48.116;11.660;2022-09-28T04:20:36;93850.13;;;8.06;100.00
65800;BME280;52544;48.116;11.660;2022-09-28T04:23:05;93854.56;;;8.06;100.00
65800;BME280;52544;48.116;11.660;2022-09-28T04:25:30;93855.72;;;8.03;100.00
65800;BME280;52544;48.116;11.660;2022-09-28T04:27:55;93853.44;;;8.08;100.00
65800;BME280;52544;48.116;11.660;2022-09-28T04:30:39;93864.97;;;8.07;100.00
65800;BME280;52544;48.116;11.660;2022-09-28T04:33:04;93865.28;;;8.04;100.00
65800;BME280;52544;48.116;11.660;2022-09-28T04:35:30;93871.72;;;8.10;100.00
65800;BME280;52544;48.116;11.660;2022-09-28T04:37:55;93874.34;;;8.10;100.00
65800;BME280;52544;48.116;11.660;2022-09-28T04:40:21;93859.69;;;8.07;100.00
65800;BME280;52544;48.116;11.660;2022-09-28T04:42:54;93872.72;;;8.09;100.00
65800;BME280;52544;48.116;11.660;2022-09-28T04:45:21;93868.44;;;8.08;100.00
65800;BME280;52544;48.116;11.660;2022-09-28T04:47:46;93870.91;;;8.09;100.00
65800;BME280;52544;48.116;11.660;2022-09-28T04:50:11;93865.94;;;8.06;100.00
65800;BME280;52544;48.116;11.660;2022-09-28T04:52:37;93857.88;;;8.08;100.00
65800;BME280;52544;48.116;11.660;2022-09-28T04:55:03;93861.47;;;8.07;100.00
65800;BME280;52544;48.116;11.660;2022-09-28T04:57:29;93865.78;;;8.08;100.00
65800;BME280;52544;48.116;11.660;2022-09-28T04:59:54;93865.75;;;7.99;100.00
65800;BME280;52544;48.116;11.660;2022-09-28T05:02:20;93868.91;;;8.03;100.00
65800;BME280;52544;48.116;11.660;2022-09-28T05:04:45;93867.75;;;8.06;100.00
65800;BME280;52544;48.116;11.660;2022-09-28T05:07:10;93870.84;;;8.01;100.00
65800;BME280;52544;48.116;11.660;2022-09-28T05:09:36;93880.03;;;7.97;100.00
65800;BME280;52544;48.116;11.660;2022-09-28T05:12:01;93888.00;;;8.05;100.00
65800;BME280;52544;48.116;11.660;2022-09-28T05:14:27;93883.72;;;8.04;100.00
65800;BME280;52544;48.116;11.660;2022-09-28T05:16:52;93884.38;;;8.06;100.00
65800;BME280;52544;48.116;11.660;2022-09-28T05:19:17;93885.72;;;8.10;100.00
65800;BME280;52544;48.116;11.660;2022-09-28T05:21:43;93883.06;;;8.10;100.00
65800;BME280;52544;48.116;11.660;2022-09-28T05:24:10;93890.97;;;8.10;100.00
65800;BME280;52544;48.116;11.660;2022-09-28T05:26:35;93892.59;;;8.03;100.00
65800;BME280;52544;48.116;11.660;2022-09-28T05:29:01;93887.81;;;8.07;100.00
65800;BME280;52544;48.116;11.660;2022-09-28T05:31:26;93876.81;;;8.03;100.00
65800;BME280;52544;48.116;11.660;2022-09-28T05:33:52;93873.53;;;8.09;100.00
65800;BME280;52544;48.116;11.660;2022-09-28T05:36:18;93864.50;;;8.12;100.00
65800;BME280;52544;48.116;11.660;2022-09-28T05:38:44;93865.31;;;8.12;100.00
65800;BME280;52544;48.116;11.660;2022-09-28T05:41:09;93846.19;;;8.10;100.00
65800;BME280;52544;48.116;11.660;2022-09-28T05:43:35;93847.53;;;8.14;100.00
65800;BME280;52544;48.116;11.660;2022-09-28T05:46:00;93843.09;;;8.15;100.00
65800;BME280;52544;48.116;11.660;2022-09-28T05:48:26;93832.88;;;8.12;100.00
65800;BME280;52544;48.116;11.660;2022-09-28T05:50:52;93834.00;;;8.09;100.00
65800;BME280;52544;48.116;11.660;2022-09-28T05:53:18;93826.59;;;8.05;100.00
65800;BME280;52544;48.116;11.660;2022-09-28T05:55:44;93836.31;;;8.04;100.00
65800;BME280;52544;48.116;11.660;2022-09-28T05:58:09;93851.41;;;8.02;100.00
65800;BME280;52544;48.116;11.660;2022-09-28T06:00:35;93850.59;;;8.01;100.00
65800;BME280;52544;48.116;11.660;2022-09-28T06:03:03;93843.69;;;8.00;100.00
65800;BME280;52544;48.116;11.660;2022-09-28T06:05:30;93833.81;;;8.02;100.00
65800;BME280;52544;48.116;11.660;2022-09-28T06:07:57;93836.94;;;8.06;100.00
65800;BME280;52544;48.116;11.660;2022-09-28T06:10:24;93839.59;;;8.06;100.00
65800;BME280;52544;48.116;11.660;2022-09-28T06:12:52;93835.66;;;8.10;100.00
65800;BME280;52544;48.116;11.660;2022-09-28T06:15:18;93821.50;;;8.11;100.00
65800;BME280;52544;48.116;11.660;2022-09-28T06:17:43;93807.66;;;8.09;100.00
65800;BME280;52544;48.116;11.660;2022-09-28T06:20:10;93799.25;;;8.06;100.00
65800;BME280;52544;48.116;11.660;2022-09-28T06:22:36;93797.44;;;8.06;100.00
65800;BME280;52544;48.116;11.660;2022-09-28T06:25:02;93792.16;;;8.06;100.00
65800;BME280;52544;48.116;11.660;2022-09-28T06:27:28;93792.50;;;8.03;100.00
65800;BME280;52544;48.116;11.660;2022-09-28T06:29:53;93792.50;;;8.03;100.00
65800;BME280;52544;48.116;11.660;2022-09-28T06:32:18;93791.81;;;8.01;100.00
65800;BME280;52544;48.116;11.660;2022-09-28T06:34:44;93791.81;;;8.01;100.00
65800;BME280;52544;48.116;11.660;2022-09-28T06:37:09;93782.28;;;8.00;100.00
65800;BME280;52544;48.116;11.660;2022-09-28T06:39:34;93782.28;;;8.00;100.00
65800;BME280;52544;48.116;11.660;2022-09-28T06:42:00;93784.91;;;8.00;100.00
65800;BME280;52544;48.116;11.660;2022-09-28T06:44:27;93777.00;;;8.00;100.00
65800;BME280;52544;48.116;11.660;2022-09-28T06:46:53;93792.50;;;8.03;100.00
65800;BME280;52544;48.116;11.660;2022-09-28T06:49:20;93803.69;;;8.05;100.00
65800;BME280;52544;48.116;11.660;2022-09-28T06:51:46;93798.25;;;8.07;100.00
65800;BME280;52544;48.116;11.660;2022-09-28T06:54:12;93797.94;;;8.10;100.00
65800;BME280;52544;48.116;11.660;2022-09-28T06:56:37;93798.78;;;8.10;100.00
65800;BME280;52544;48.116;11.660;2022-09-28T06:59:02;93799.28;;;8.14;100.00
65800;BME280;52544;48.116;11.660;2022-09-28T07:01:28;93807.03;;;8.15;100.00
65800;BME280;52544;48.116;11.660;2022-09-28T07:03:53;93798.97;;;8.17;100.00
65800;BME280;52544;48.116;11.660;2022-09-28T07:06:19;93801.13;;;8.21;100.00
65800;BME280;52544;48.116;11.660;2022-09-28T07:08:48;93794.88;;;8.22;100.00
65800;BME280;52544;48.116;11.660;2022-09-28T07:11:14;93799.13;;;8.23;100.00
65800;BME280;52544;48.116;11.660;2022-09-28T07:13:39;93802.94;;;8.21;100.00
65800;BME280;52544;48.116;11.660;2022-09-28T07:16:05;93795.84;;;8.21;100.00
65800;BME280;52544;48.116;11.660;2022-09-28T07:18:31;93806.22;;;8.23;100.00
65800;BME280;52544;48.116;11.660;2022-09-28T07:20:56;93806.72;;;8.26;100.00
65800;BME280;52544;48.116;11.660;2022-09-28T07:23:22;93802.78;;;8.22;100.00
65800;BME280;52544;48.116;11.660;2022-09-28T07:25:48;93802.78;;;8.22;100.00
65800;BME280;52544;48.116;11.660;2022-09-28T07:28:15;93801.78;;;8.23;100.00
65800;BME280;52544;48.116;11.660;2022-09-28T07:30:41;93814.63;;;8.26;100.00
65800;BME280;52544;48.116;11.660;2022-09-28T07:33:11;93813.50;;;8.29;100.00
65800;BME280;52544;48.116;11.660;2022-09-28T07:35:37;93812.69;;;8.29;100.00
65800;BME280;52544;48.116;11.660;2022-09-28T07:38:06;93819.94;;;8.35;100.00
65800;BME280;52544;48.116;11.660;2022-09-28T07:40:33;93809.69;;;8.98;100.00
65800;BME280;52544;48.116;11.660;2022-09-28T07:43:18;93812.31;;;8.74;100.00
65800;BME280;52544;48.116;11.660;2022-09-28T07:45:49;93822.00;;;8.65;100.00
65800;BME280;52544;48.116;11.660;2022-09-28T07:48:17;93830.91;;;8.64;100.00
65800;BME280;52544;48.116;11.660;2022-09-28T07:51:01;93831.75;;;8.65;100.00
65800;BME280;52544;48.116;11.660;2022-09-28T07:53:26;93827.47;;;8.64;100.00
65800;BME280;52544;48.116;11.660;2022-09-28T07:55:57;93829.94;;;8.65;100.00
65800;BME280;52544;48.116;11.660;2022-09-28T07:58:30;93836.84;;;8.66;100.00
65800;BME280;52544;48.116;11.660;2022-09-28T08:00:57;93828.28;;;8.64;100.00
65800;BME280;52544;48.116;11.660;2022-09-28T08:03:25;93830.94;;;8.72;100.00
65800;BME280;52544;48.116;11.660;2022-09-28T08:05:57;93827.31;;;8.73;100.00
65800;BME280;52544;48.116;11.660;2022-09-28T08:08:23;93829.63;;;8.76;100.00
65800;BME280;52544;48.116;11.660;2022-09-28T08:10:48;93833.09;;;8.77;100.00
65800;BME280;52544;48.116;11.660;2022-09-28T08:13:16;93836.03;;;8.74;100.00
65800;BME280;52544;48.116;11.660;2022-09-28T08:15:42;93839.50;;;8.74;100.00
65800;BME280;52544;48.116;11.660;2022-09-28T08:18:08;93840.81;;;8.70;100.00
65800;BME280;52544;48.116;11.660;2022-09-28T08:20:33;93843.47;;;8.79;100.00
65800;BME280;52544;48.116;11.660;2022-09-28T08:23:25;93848.59;;;8.80;100.00
65800;BME280;52544;48.116;11.660;2022-09-28T08:25:51;93846.91;;;8.79;100.00
65800;BME280;52544;48.116;11.660;2022-09-28T08:28:18;93851.88;;;8.82;100.00
65800;BME280;52544;48.116;11.660;2022-09-28T08:30:45;93843.81;;;8.84;100.00
65800;BME280;52544;48.116;11.660;2022-09-28T08:33:12;93853.72;;;8.90;100.00
65800;BME280;52544;48.116;11.660;2022-09-28T08:35:38;93846.63;;;8.90;100.00
65800;BME280;52544;48.116;11.660;2022-09-28T08:38:05;93853.53;;;8.91;100.00
65800;BME280;52544;48.116;11.660;2022-09-28T08:40:34;93856.19;;;8.91;100.00
65800;BME280;52544;48.116;11.660;2022-09-28T08:43:05;93854.22;;;8.93;100.00
65800;BME280;52544;48.116;11.660;2022-09-28T08:45:33;93861.97;;;8.95;100.00
65800;BME280;52544;48.116;11.660;2022-09-28T08:48:09;93848.28;;;8.99;100.00
65800;BME280;52544;48.116;11.660;2022-09-28T08:51:03;93855.38;;;8.99;100.00
65800;BME280;52544;48.116;11.660;2022-09-28T09:02:14;93871.88;;;9.01;100.00
65800;BME280;52544;48.116;11.660;2022-09-28T09:04:41;93875.84;;;9.05;100.00
65800;BME280;52544;48.116;11.660;2022-09-28T09:07:21;93877.47;;;9.06;100.00
65800;BME280;52544;48.116;11.660;2022-09-28T09:15:47;93880.63;;;9.18;100.00
65800;BME280;52544;48.116;11.660;2022-09-28T09:21:14;93886.25;;;9.23;100.00
65800;BME280;52544;48.116;11.660;2022-09-28T09:23:52;93921.69;;;9.29;100.00
65800;BME280;52544;48.116;11.660;2022-09-28T09:26:34;93941.34;;;9.18;100.00
65800;BME280;52544;48.116;11.660;2022-09-28T09:40:08;93956.88;;;8.79;100.00
65800;BME280;52544;48.116;11.660;2022-09-28T09:42:54;93953.28;;;8.80;100.00
65800;BME280;52544;48.116;11.660;2022-09-28T09:45:33;93951.94;;;8.75;100.00
65800;BME280;52544;48.116;11.660;2022-09-28T09:48:14;93961.28;;;8.70;100.00
65800;BME280;52544;48.116;11.660;2022-09-28T09:50:44;93959.16;;;8.73;100.00
65800;BME280;52544;48.116;11.660;2022-09-28T09:55:46;93971.72;;;8.80;100.00
65800;BME280;52544;48.116;11.660;2022-09-28T09:58:22;93968.09;;;8.81;100.00
65800;BME280;52544;48.116;11.660;2022-09-28T10:00:53;93973.69;;;8.77;100.00
65800;BME280;52544;48.116;11.660;2022-09-28T10:03:39;93967.75;;;8.75;100.00
65800;BME280;52544;48.116;11.660;2022-09-28T10:06:10;93967.13;;;8.82;100.00
65800;BME280;52544;48.116;11.660;2022-09-28T10:08:40;93974.50;;;8.78;100.00
65800;BME280;52544;48.116;11.660;2022-09-28T10:11:11;93989.22;;;8.81;100.00
65800;BME280;52544;48.116;11.660;2022-09-28T10:13:39;93978.97;;;8.77;100.00
65800;BME280;52544;48.116;11.660;2022-09-28T10:16:06;93982.28;;;8.80;100.00
65800;BME280;52544;48.116;11.660;2022-09-28T10:18:31;93990.19;;;8.80;100.00
65800;BME280;52544;48.116;11.660;2022-09-28T10:20:57;93980.47;;;8.80;100.00
65800;BME280;52544;48.116;11.660;2022-09-28T10:23:29;93981.28;;;8.81;100.00
65800;BME280;52544;48.116;11.660;2022-09-28T10:26:00;93994.31;;;8.82;100.00
65800;BME280;52544;48.116;11.660;2022-09-28T10:28:49;93999.91;;;8.79;100.00
65800;BME280;52544;48.116;11.660;2022-09-28T10:34:02;94003.53;;;8.78;100.00
65800;BME280;52544;48.116;11.660;2022-09-28T10:36:29;93998.72;;;8.73;100.00
65800;BME280;52544;48.116;11.660;2022-09-28T10:39:03;93996.91;;;8.74;100.00
65800;BME280;52544;48.116;11.660;2022-09-28T10:41:29;93999.72;;;8.72;100.00
65800;BME280;52544;48.116;11.660;2022-09-28T10:43:57;93999.25;;;8.77;100.00
65800;BME280;52544;48.116;11.660;2022-09-28T10:46:32;94007.66;;;8.81;100.00
65800;BME280;52544;48.116;11.660;2022-09-28T10:49:02;94010.13;;;8.82;100.00
65800;BME280;52544;48.116;11.660;2022-09-28T10:51:49;94017.06;;;8.83;100.00
65800;BME280;52544;48.116;11.660;2022-09-28T10:54:24;94018.59;;;8.94;100.00
65800;BME280;52544;48.116;11.660;2022-09-28T10:56:51;94017.56;;;8.87;100.00
65800;BME280;52544;48.116;11.660;2022-09-28T11:02:08;94021.88;;;8.96;100.00
65800;BME280;52544;48.116;11.660;2022-09-28T11:04:40;94002.50;;;9.05;100.00
65800;BME280;52544;48.116;11.660;2022-09-28T11:07:17;94008.41;;;9.07;100.00
65800;BME280;52544;48.116;11.660;2022-09-28T11:09:46;94001.19;;;9.09;100.00
65800;BME280;52544;48.116;11.660;2022-09-28T11:12:24;93993.91;;;9.11;100.00
65800;BME280;52544;48.116;11.660;2022-09-28T11:15:03;93997.56;;;9.18;100.00
65800;BME280;52544;48.116;11.660;2022-09-28T11:17:34;93991.50;;;9.26;100.00
65800;BME280;52544;48.116;11.660;2022-09-28T11:22:48;94015.72;;;9.30;100.00
65800;BME280;52544;48.116;11.660;2022-09-28T11:25:21;94029.94;;;9.29;100.00
65800;BME280;52544;48.116;11.660;2022-09-28T11:30:47;94000.88;;;9.29;100.00
65800;BME280;52544;48.116;11.660;2022-09-28T11:33:39;94007.50;;;9.33;100.00
65800;BME280;52544;48.116;11.660;2022-09-28T11:41:56;94018.75;;;9.35;100.00
65800;BME280;52544;48.116;11.660;2022-09-28T11:44:40;94027.63;;;9.34;100.00
65800;BME280;52544;48.116;11.660;2022-09-28T11:49:47;94005.53;;;9.51;100.00
65800;BME280;52544;48.116;11.660;2022-09-28T11:52:24;94000.78;;;9.55;100.00
65800;BME280;52544;48.116;11.660;2022-09-28T11:55:00;93997.63;;;9.59;100.00
65800;BME280;52544;48.116;11.660;2022-09-28T11:57:31;94015.63;;;9.56;100.00
65800;BME280;52544;48.116;11.660;2022-09-28T12:00:06;94022.09;;;9.61;100.00
65800;BME280;52544;48.116;11.660;2022-09-28T12:02:41;94029.00;;;9.62;100.00
65800;BME280;52544;48.116;11.660;2022-09-28T12:05:21;94030.16;;;9.68;100.00
65800;BME280;52544;48.116;11.660;2022-09-28T12:08:00;94026.84;;;9.58;100.00
65800;BME280;52544;48.116;11.660;2022-09-28T12:10:39;94028.00;;;9.55;100.00
65800;BME280;52544;48.116;11.660;2022-09-28T12:13:17;94024.03;;;9.59;100.00
65800;BME280;52544;48.116;11.660;2022-09-28T12:16:08;94017.44;;;9.55;100.00
65800;BME280;52544;48.116;11.660;2022-09-28T12:24:08;94008.06;;;9.61;100.00
65800;BME280;52544;48.116;11.660;2022-09-28T12:26:57;94013.84;;;9.64;100.00
65800;BME280;52544;48.116;11.660;2022-09-28T12:29:40;94028.03;;;9.71;100.00
65800;BME280;52544;48.116;11.660;2022-09-28T12:32:23;94029.84;;;9.71;100.00
65800;BME280;52544;48.116;11.660;2022-09-28T12:34:51;94021.59;;;9.74;100.00
65800;BME280;52544;48.116;11.660;2022-09-28T12:37:26;94023.06;;;9.76;100.00
65800;BME280;52544;48.116;11.660;2022-09-28T12:40:49;94015.16;;;9.76;100.00
65800;BME280;52544;48.116;11.660;2022-09-28T12:45:49;94032.31;;;9.81;100.00
65800;BME280;52544;48.116;11.660;2022-09-28T12:51:15;94024.06;;;9.75;100.00
65800;BME280;52544;48.116;11.660;2022-09-28T13:07:19;94025.56;;;9.78;100.00
65800;BME280;52544;48.116;11.660;2022-09-28T13:12:28;94029.03;;;9.79;100.00
65800;BME280;52544;48.116;11.660;2022-09-28T13:15:07;94031.00;;;9.76;100.00
65800;BME280;52544;48.116;11.660;2022-09-28T13:21:00;94022.59;;;9.65;100.00
65800;BME280;52544;48.116;11.660;2022-09-28T13:23:33;94022.91;;;9.62;100.00
65800;BME280;52544;48.116;11.660;2022-09-28T13:28:36;94023.88;;;9.52;100.00
65800;BME280;52544;48.116;11.660;2022-09-28T13:31:03;94027.00;;;9.48;100.00
65800;BME280;52544;48.116;11.660;2022-09-28T13:33:40;94023.69;;;9.46;100.00
65800;BME280;52544;48.116;11.660;2022-09-28T13:38:53;94021.53;;;9.33;100.00
65800;BME280;52544;48.116;11.660;2022-09-28T13:41:29;94018.06;;;9.33;100.00
65800;BME280;52544;48.116;11.660;2022-09-28T13:52:56;94032.72;;;9.19;100.00
65800;BME280;52544;48.116;11.660;2022-09-28T13:55:46;94040.97;;;9.24;100.00
65800;BME280;52544;48.116;11.660;2022-09-28T13:58:36;94044.91;;;9.20;100.00
65800;BME280;52544;48.116;11.660;2022-09-28T14:01:09;94043.56;;;9.16;100.00
65800;BME280;52544;48.116;11.660;2022-09-28T14:04:14;94041.09;;;9.14;100.00
65800;BME280;52544;48.116;11.660;2022-09-28T14:06:46;94039.91;;;9.09;100.00
65800;BME280;52544;48.116;11.660;2022-09-28T14:14:49;94036.13;;;9.11;100.00
65800;BME280;52544;48.116;11.660;2022-09-28T14:19:44;94031.16;;;9.08;100.00
65800;BME280;52544;48.116;11.660;2022-09-28T14:25:32;94035.00;;;9.14;100.00
65800;BME280;52544;48.116;11.660;2022-09-28T14:28:36;94040.75;;;9.17;100.00
65800;BME280;52544;48.116;11.660;2022-09-28T14:31:08;94035.34;;;9.19;100.00
65800;BME280;52544;48.116;11.660;2022-09-28T14:33:38;94038.03;;;9.35;100.00
65800;BME280;52544;48.116;11.660;2022-09-28T14:36:33;94042.75;;;9.15;100.00
65800;BME280;52544;48.116;11.660;2022-09-28T14:39:25;94042.44;;;9.18;100.00
65800;BME280;52544;48.116;11.660;2022-09-28T14:42:14;94040.75;;;9.17;100.00
65800;BME280;52544;48.116;11.660;2022-09-28T14:47:43;94033.66;;;9.10;100.00
65800;BME280;52544;48.116;11.660;2022-09-28T14:50:27;94038.13;;;9.09;100.00
65800;BME280;52544;48.116;11.660;2022-09-28T14:52:54;94038.94;;;9.10;100.00
65800;BME280;52544;48.116;11.660;2022-09-28T14:55:26;94036.31;;;9.10;100.00
65800;BME280;52544;48.116;11.660;2022-09-28T14:57:57;94037.13;;;9.10;100.00
65800;BME280;52544;48.116;11.660;2022-09-28T15:00:27;94030.88;;;9.11;100.00
65800;BME280;52544;48.116;11.660;2022-09-28T15:02:59;94042.88;;;9.06;100.00
65800;BME280;52544;48.116;11.660;2022-09-28T15:05:34;94046.19;;;9.08;100.00
65800;BME280;52544;48.116;11.660;2022-09-28T15:08:02;94047.34;;;9.05;100.00
65800;BME280;52544;48.116;11.660;2022-09-28T15:10:36;94047.34;;;9.05;100.00
65800;BME280;52544;48.116;11.660;2022-09-28T15:13:05;94050.94;;;9.04;100.00
65800;BME280;52544;48.116;11.660;2022-09-28T15:15:44;94054.88;;;9.00;100.00
65800;BME280;52544;48.116;11.660;2022-09-28T15:20:54;94051.28;;;9.01;100.00
65800;BME280;52544;48.116;11.660;2022-09-28T15:23:33;94059.84;;;9.03;100.00